Time;durP1;ratioP1;P1;durP2;ratioP2;P2;SDS_P1;SDS_P2;PMS_P1;PMS_P2;Temp;Humidity;BMP_temperature;BMP_pressure;BME280_temperature;BME280_humidity;BME280_pressure;Samples;Min_cycle;Max_cycle;Signal;HPM_P1;HPM_P2
2023/08/28 00:01:04;;;;;;;2.03;1.10;;;13.40;99.90;;;;;;5012902;28;20797;-81
2023/08/28 00:03:31;;;;;;;1.63;1.00;;;13.40;99.90;;;;;;4995878;28;20057;-82
2023/08/28 00:05:57;;;;;;;2.10;1.50;;;13.40;99.90;;;;;;5031535;28;20036;-81
2023/08/28 00:08:23;;;;;;;2.65;1.60;;;13.40;99.90;;;;;;4997254;28;20042;-81
2023/08/28 00:10:53;;;;;;;3.13;2.40;;;13.40;99.90;;;;;;5015719;28;20370;-81
2023/08/28 00:13:19;;;;;;;3.28;2.45;;;13.30;99.90;;;;;;4997700;28;20407;-81
2023/08/28 00:15:46;;;;;;;4.78;2.20;;;13.30;99.90;;;;;;5034003;28;20041;-79
2023/08/28 00:18:12;;;;;;;3.00;2.03;;;13.30;99.90;;;;;;4998976;28;20404;-81
2023/08/28 00:20:39;;;;;;;1.83;1.58;;;13.30;99.90;;;;;;5014764;28;20049;-81
2023/08/28 00:23:06;;;;;;;4.00;1.63;;;13.30;99.90;;;;;;4997154;28;21056;-81
2023/08/28 00:25:32;;;;;;;2.30;1.92;;;13.20;99.90;;;;;;5017649;28;20038;-80
2023/08/28 00:27:58;;;;;;;2.63;1.83;;;13.20;99.90;;;;;;5031894;28;20469;-81
2023/08/28 00:30:25;;;;;;;3.22;1.13;;;13.20;99.90;;;;;;5013206;28;20038;-80
2023/08/28 00:32:51;;;;;;;2.90;1.88;;;13.20;99.90;;;;;;5013510;28;20033;-80
2023/08/28 00:35:18;;;;;;;2.33;1.65;;;13.20;99.90;;;;;;5000049;28;20041;-81
2023/08/28 00:37:45;;;;;;;3.17;1.55;;;13.20;99.90;;;;;;5016642;28;20040;-82
2023/08/28 00:40:13;;;;;;;2.10;1.23;;;13.20;99.90;;;;;;5014096;28;20457;-81
2023/08/28 00:42:41;;;;;;;2.13;1.88;;;13.20;99.90;;;;;;5014063;28;20061;-81
2023/08/28 00:45:08;;;;;;;1.50;1.20;;;13.10;99.90;;;;;;4998955;28;20033;-81
2023/08/28 00:47:35;;;;;;;1.88;1.38;;;13.10;99.90;;;;;;4999490;28;20040;-81
2023/08/28 00:50:04;;;;;;;2.38;1.70;;;13.10;99.90;;;;;;4980811;28;20772;-82
2023/08/28 00:52:32;;;;;;;3.38;1.73;;;13.10;99.90;;;;;;5029353;28;20049;-81
2023/08/28 00:54:59;;;;;;;2.00;1.55;;;13.10;99.90;;;;;;4993694;28;20034;-82
2023/08/28 00:57:28;;;;;;;2.28;1.73;;;13.10;99.90;;;;;;5011960;28;20092;-81
2023/08/28 00:59:55;;;;;;;3.50;2.38;;;13.10;99.90;;;;;;4994269;28;20096;-83
2023/08/28 01:02:23;;;;;;;3.08;2.50;;;13.10;99.90;;;;;;4991820;28;20033;-81
2023/08/28 01:04:51;;;;;;;3.00;2.10;;;13.10;99.90;;;;;;4979639;28;20049;-82
2023/08/28 01:07:28;;;;;;;2.95;2.50;;;13.00;99.90;;;;;;4981045;28;20038;-82
2023/08/28 01:10:16;;;;;;;2.00;1.80;;;13.00;99.90;;;;;;4997623;28;20034;-80
2023/08/28 01:13:04;;;;;;;2.40;2.20;;;13.00;99.90;;;;;;4977400;28;20453;-82
2023/08/28 01:15:32;;;;;;;3.13;2.20;;;13.00;99.90;;;;;;4995744;28;20046;-80
2023/08/28 01:18:02;;;;;;;2.60;1.90;;;12.90;99.90;;;;;;4997258;28;20077;-81
2023/08/28 01:20:31;;;;;;;2.33;1.63;;;12.90;99.90;;;;;;4994949;28;20044;-81
2023/08/28 01:23:08;;;;;;;2.30;1.67;;;12.90;99.90;;;;;;5028839;28;20492;-82
2023/08/28 01:25:36;;;;;;;2.85;2.20;;;12.90;99.90;;;;;;4998588;28;20496;-81
2023/08/28 01:28:02;;;;;;;3.30;2.38;;;12.90;99.90;;;;;;4997284;28;20052;-81
2023/08/28 01:30:29;;;;;;;2.55;1.90;;;12.90;99.90;;;;;;5010225;28;20511;-80
2023/08/28 01:32:55;;;;;;;2.20;1.45;;;12.90;99.90;;;;;;5026306;28;20485;-80
2023/08/28 01:35:28;;;;;;;2.03;1.75;;;12.80;99.90;;;;;;5011678;28;20045;-80
2023/08/28 01:38:01;;;;;;;3.10;2.20;;;12.80;99.90;;;;;;5009657;28;20049;-81
2023/08/28 01:40:34;;;;;;;2.10;1.77;;;12.80;99.90;;;;;;5010454;28;20504;-81
2023/08/28 01:43:05;;;;;;;2.10;1.65;;;12.80;99.90;;;;;;5009642;28;20100;-80
2023/08/28 01:45:36;;;;;;;2.88;2.05;;;12.80;99.90;;;;;;5012412;28;20269;-81
2023/08/28 01:48:03;;;;;;;2.80;1.88;;;12.80;99.90;;;;;;4997451;28;20049;-79
2023/08/28 01:50:29;;;;;;;2.08;1.55;;;12.80;99.90;;;;;;5011307;28;20061;-80
2023/08/28 01:52:56;;;;;;;2.40;2.08;;;12.80;99.90;;;;;;5012950;28;20038;-80
2023/08/28 01:55:46;;;;;;;3.05;1.95;;;12.80;99.90;;;;;;4978444;28;20025;-81
2023/08/28 01:58:15;;;;;;;2.00;1.42;;;12.70;99.90;;;;;;5027552;28;21020;-81
2023/08/28 02:00:41;;;;;;;3.17;1.95;;;12.70;99.90;;;;;;4993501;28;20037;-80
2023/08/28 02:03:09;;;;;;;2.72;1.88;;;12.70;99.90;;;;;;5009682;28;20030;-80
2023/08/28 02:05:36;;;;;;;3.30;2.28;;;12.70;99.90;;;;;;4995002;28;20057;-80
2023/08/28 02:08:03;;;;;;;2.90;2.58;;;12.70;99.90;;;;;;5012823;28;20033;-80
2023/08/28 02:10:30;;;;;;;2.53;1.60;;;12.70;99.90;;;;;;4993267;28;20038;-80
2023/08/28 02:12:58;;;;;;;2.63;1.90;;;12.70;99.90;;;;;;4992519;28;20413;-80
2023/08/28 02:15:25;;;;;;;3.15;2.17;;;12.70;99.90;;;;;;5027301;28;20033;-80
2023/08/28 02:17:51;;;;;;;2.55;2.13;;;12.60;99.90;;;;;;4994950;28;20042;-79
2023/08/28 02:20:18;;;;;;;3.03;2.17;;;12.60;99.90;;;;;;5026119;28;20045;-80
2023/08/28 02:22:44;;;;;;;3.00;2.80;;;12.60;99.90;;;;;;4977874;28;20049;-81
2023/08/28 02:25:11;;;;;;;3.17;2.58;;;12.60;99.90;;;;;;4994273;28;20038;-80
2023/08/28 02:27:37;;;;;;;2.97;2.30;;;12.60;99.90;;;;;;4976031;28;20473;-80
2023/08/28 02:30:06;;;;;;;3.22;2.53;;;12.60;99.90;;;;;;4978234;28;20388;-81
2023/08/28 02:32:32;;;;;;;2.50;2.30;;;12.60;99.90;;;;;;4990831;28;20295;-81
2023/08/28 02:34:59;;;;;;;3.58;2.88;;;12.60;99.90;;;;;;4976652;28;20065;-80
2023/08/28 02:37:26;;;;;;;4.20;3.13;;;12.60;99.90;;;;;;5011027;28;20025;-79
2023/08/28 02:39:52;;;;;;;4.20;3.80;;;12.60;99.90;;;;;;4992618;28;20037;-79
2023/08/28 02:42:19;;;;;;;3.33;3.03;;;12.60;99.90;;;;;;5016572;28;20049;-81
2023/08/28 02:44:45;;;;;;;4.18;3.75;;;12.50;99.90;;;;;;4995121;28;20511;-79
2023/08/28 02:47:11;;;;;;;4.15;3.50;;;12.50;99.90;;;;;;4995226;28;20034;-80
2023/08/28 02:49:38;;;;;;;4.07;3.70;;;12.50;99.90;;;;;;4993225;28;20716;-79
2023/08/28 02:52:05;;;;;;;3.85;3.42;;;12.50;99.90;;;;;;5007137;28;20338;-80
2023/08/28 02:54:31;;;;;;;3.97;2.67;;;12.50;99.90;;;;;;4977972;28;20034;-80
2023/08/28 02:56:58;;;;;;;3.88;2.47;;;12.40;99.90;;;;;;4994785;28;20050;-80
2023/08/28 02:59:25;;;;;;;2.65;2.40;;;12.40;99.90;;;;;;4979307;28;20045;-79
2023/08/28 03:01:51;;;;;;;2.50;2.30;;;12.30;99.90;;;;;;5011918;28;20046;-80
2023/08/28 03:04:18;;;;;;;2.88;2.67;;;12.30;99.90;;;;;;5027905;28;20068;-79
2023/08/28 03:06:44;;;;;;;3.88;3.42;;;12.30;99.90;;;;;;5029560;28;20436;-79
2023/08/28 03:09:12;;;;;;;5.18;3.63;;;12.30;99.90;;;;;;5013008;28;20029;-80
2023/08/28 03:11:39;;;;;;;4.55;3.67;;;12.30;99.90;;;;;;4980005;28;20029;-80
2023/08/28 03:14:05;;;;;;;5.30;3.83;;;12.30;99.90;;;;;;4997672;28;20022;-80
2023/08/28 03:16:32;;;;;;;5.07;4.10;;;12.30;99.90;;;;;;4995860;28;20057;-79
2023/08/28 03:18:58;;;;;;;4.32;3.88;;;12.30;99.90;;;;;;5027111;28;20056;-79
2023/08/28 03:21:25;;;;;;;5.50;3.97;;;12.20;99.90;;;;;;4977689;28;20061;-79
2023/08/28 03:23:52;;;;;;;4.13;3.60;;;12.20;99.90;;;;;;4992511;28;20415;-79
2023/08/28 03:26:18;;;;;;;4.72;3.85;;;12.20;99.90;;;;;;5012206;28;20037;-79
2023/08/28 03:28:44;;;;;;;5.18;4.20;;;12.20;99.90;;;;;;4994258;28;20045;-79
2023/08/28 03:31:11;;;;;;;4.38;3.97;;;12.20;99.90;;;;;;4977102;28;20037;-80
2023/08/28 03:33:38;;;;;;;4.38;3.85;;;12.20;99.90;;;;;;4992818;28;20045;-81
2023/08/28 03:36:05;;;;;;;6.20;4.57;;;12.10;99.90;;;;;;5008494;28;20033;-80
2023/08/28 03:38:32;;;;;;;5.20;4.30;;;12.10;99.90;;;;;;4992576;28;20034;-80
2023/08/28 03:40:58;;;;;;;4.25;3.80;;;12.10;99.90;;;;;;4990977;28;20500;-80
2023/08/28 03:43:25;;;;;;;4.38;3.97;;;12.10;99.90;;;;;;5007200;28;20049;-80
2023/08/28 03:45:52;;;;;;;4.18;3.88;;;12.10;99.90;;;;;;4977194;28;20472;-79
2023/08/28 03:48:20;;;;;;;5.10;4.60;;;12.10;99.90;;;;;;4977327;28;20485;-80
2023/08/28 03:50:46;;;;;;;6.03;4.88;;;12.10;99.90;;;;;;5009536;28;20053;-80
2023/08/28 03:53:13;;;;;;;5.47;5.00;;;12.10;99.90;;;;;;4991517;28;20030;-79
2023/08/28 03:55:40;;;;;;;5.13;4.30;;;12.10;99.90;;;;;;4978979;28;20044;-80
2023/08/28 03:58:07;;;;;;;4.50;4.20;;;12.10;99.90;;;;;;4993476;28;20512;-80
2023/08/28 04:00:34;;;;;;;3.83;3.38;;;12.00;99.90;;;;;;4992895;28;20037;-79
2023/08/28 04:03:01;;;;;;;3.55;3.25;;;12.10;99.90;;;;;;5005936;28;20042;-80
2023/08/28 04:05:28;;;;;;;3.33;3.03;;;12.10;99.90;;;;;;5010355;28;20041;-79
2023/08/28 04:07:56;;;;;;;3.92;3.22;;;12.10;99.90;;;;;;5008043;28;20041;-79
2023/08/28 04:10:22;;;;;;;3.65;3.35;;;12.10;99.90;;;;;;4974620;28;20045;-80
2023/08/28 04:12:49;;;;;;;3.92;3.58;;;12.10;99.90;;;;;;5024481;28;20384;-80
2023/08/28 04:15:15;;;;;;;4.28;3.88;;;12.10;99.90;;;;;;5026234;28;20045;-80
2023/08/28 04:17:41;;;;;;;3.90;3.20;;;12.00;99.90;;;;;;4993937;28;20038;-79
2023/08/28 04:20:17;;;;;;;4.50;4.05;;;12.00;99.90;;;;;;4992854;28;20493;-79
2023/08/28 04:22:44;;;;;;;5.72;4.55;;;12.00;99.90;;;;;;4990564;28;20042;-79
2023/08/28 04:25:13;;;;;;;6.68;4.35;;;12.00;99.90;;;;;;4992902;28;20476;-80
2023/08/28 04:27:40;;;;;;;4.85;4.45;;;12.10;99.90;;;;;;4992334;28;20038;-79
2023/08/28 04:30:08;;;;;;;4.45;4.05;;;12.10;99.90;;;;;;4978852;28;20762;-79
2023/08/28 04:32:35;;;;;;;4.97;4.47;;;12.20;99.90;;;;;;5010044;28;20517;-80
2023/08/28 04:35:03;;;;;;;6.53;4.43;;;12.30;99.90;;;;;;5012202;28;20034;-79
2023/08/28 04:37:31;;;;;;;5.20;4.70;;;12.30;99.90;;;;;;4993969;28;20041;-80
2023/08/28 04:39:57;;;;;;;5.57;5.03;;;12.40;99.90;;;;;;4978124;28;20038;-80
2023/08/28 04:42:24;;;;;;;5.00;4.60;;;12.50;99.90;;;;;;4996016;28;20481;-79
2023/08/28 04:44:50;;;;;;;4.97;4.38;;;12.50;99.90;;;;;;5012657;28;20037;-80
2023/08/28 04:47:17;;;;;;;6.72;4.82;;;12.60;99.90;;;;;;5012177;28;20041;-80
2023/08/28 04:49:43;;;;;;;5.13;4.68;;;12.60;99.90;;;;;;4995918;28;20033;-80
2023/08/28 04:52:09;;;;;;;4.88;4.43;;;12.70;99.90;;;;;;5008386;28;20061;-80
2023/08/28 04:54:36;;;;;;;4.25;3.55;;;12.70;99.90;;;;;;4995256;28;20034;-79
2023/08/28 04:57:05;;;;;;;4.78;4.10;;;12.70;99.90;;;;;;5013561;28;20034;-80
2023/08/28 04:59:32;;;;;;;5.25;4.50;;;12.70;99.90;;;;;;5012893;28;20432;-80
2023/08/28 05:01:58;;;;;;;4.57;4.18;;;12.70;99.90;;;;;;4994318;28;20041;-80
2023/08/28 05:04:27;;;;;;;4.50;4.10;;;12.70;99.90;;;;;;4996080;28;20033;-81
2023/08/28 05:06:53;;;;;;;5.90;4.20;;;12.70;99.90;;;;;;4997901;28;20041;-80
2023/08/28 05:09:19;;;;;;;6.70;4.55;;;12.60;99.90;;;;;;4998758;28;20042;-80
2023/08/28 05:11:46;;;;;;;4.32;3.83;;;12.70;99.90;;;;;;5001473;28;20045;-80
2023/08/28 05:14:12;;;;;;;4.82;4.38;;;12.60;99.90;;;;;;4982633;28;20045;-80
2023/08/28 05:16:39;;;;;;;5.32;4.50;;;12.60;99.90;;;;;;4998578;28;20041;-80
2023/08/28 05:19:06;;;;;;;5.15;4.65;;;12.60;99.90;;;;;;5012350;28;20645;-80
2023/08/28 05:21:32;;;;;;;4.75;4.35;;;12.60;99.90;;;;;;4994263;28;20116;-80
2023/08/28 05:23:59;;;;;;;5.38;4.88;;;12.60;99.90;;;;;;4994182;28;20408;-80
2023/08/28 05:26:26;;;;;;;5.30;4.80;;;12.60;99.90;;;;;;4996005;28;20500;-80
2023/08/28 05:28:53;;;;;;;6.00;4.28;;;12.60;99.90;;;;;;4993187;28;20049;-80
2023/08/28 05:31:20;;;;;;;5.07;4.57;;;12.60;99.90;;;;;;4994889;28;20044;-81
2023/08/28 05:33:47;;;;;;;5.70;5.20;;;12.70;99.90;;;;;;4993293;28;20038;-80
2023/08/28 05:36:14;;;;;;;4.95;4.55;;;12.70;99.90;;;;;;4994691;28;20034;-79
2023/08/28 05:38:40;;;;;;;4.72;3.95;;;12.80;99.90;;;;;;4995385;28;20049;-78
2023/08/28 05:41:07;;;;;;;4.68;4.28;;;12.80;99.90;;;;;;4996762;28;20037;-78
2023/08/28 05:43:33;;;;;;;4.78;4.28;;;12.90;99.90;;;;;;5013076;28;20037;-78
2023/08/28 05:46:00;;;;;;;5.78;4.65;;;13.10;99.90;;;;;;4995654;28;21428;-78
2023/08/28 05:48:27;;;;;;;5.45;4.95;;;13.20;99.90;;;;;;5028088;28;20042;-78
2023/08/28 05:50:53;;;;;;;5.32;4.82;;;13.30;99.90;;;;;;4994432;28;20052;-79
2023/08/28 05:53:21;;;;;;;6.50;5.80;;;13.40;99.90;;;;;;5024336;28;20034;-80
2023/08/28 05:55:47;;;;;;;5.82;5.30;;;13.50;99.90;;;;;;4994531;28;21265;-79
2023/08/28 05:58:14;;;;;;;6.57;5.93;;;13.60;99.90;;;;;;4978568;28;20048;-83
2023/08/28 06:00:40;;;;;;;6.50;6.00;;;13.80;99.90;;;;;;4978623;28;20641;-82
2023/08/28 06:03:07;;;;;;;6.60;6.00;;;13.90;99.90;;;;;;5008438;28;20029;-80
2023/08/28 06:05:34;;;;;;;8.15;6.60;;;14.00;99.90;;;;;;4995362;28;20677;-82
2023/08/28 06:08:00;;;;;;;6.60;6.00;;;14.10;99.90;;;;;;5028796;28;20032;-83
2023/08/28 06:10:29;;;;;;;6.75;5.53;;;14.20;99.90;;;;;;4978745;28;20052;-83
2023/08/28 06:12:55;;;;;;;5.70;5.20;;;14.30;99.90;;;;;;4978234;28;20042;-81
2023/08/28 06:15:22;;;;;;;7.57;6.88;;;14.30;99.90;;;;;;4995534;28;20038;-80
2023/08/28 06:17:52;;;;;;;9.43;8.38;;;14.40;99.90;;;;;;5028282;28;20041;-80
2023/08/28 06:20:18;;;;;;;7.93;7.32;;;14.50;99.90;;;;;;4976608;28;20045;-80
2023/08/28 06:22:44;;;;;;;9.25;8.45;;;14.60;99.90;;;;;;4992451;28;20045;-78
2023/08/28 06:25:11;;;;;;;7.25;6.53;;;14.60;99.90;;;;;;4994816;28;20026;-78
2023/08/28 06:27:38;;;;;;;6.82;6.22;;;14.70;99.90;;;;;;5010902;28;20044;-77
2023/08/28 06:30:06;;;;;;;6.85;6.25;;;14.80;99.90;;;;;;5010217;28;20084;-77
2023/08/28 06:32:35;;;;;;;7.03;6.43;;;14.80;99.90;;;;;;5008562;28;20485;-77
2023/08/28 06:35:01;;;;;;;7.03;6.43;;;14.90;99.90;;;;;;4997595;28;20473;-79
2023/08/28 06:37:28;;;;;;;6.72;6.13;;;15.00;99.90;;;;;;5028017;28;20412;-76
2023/08/28 06:39:55;;;;;;;6.53;6.00;;;15.00;99.90;;;;;;5013083;28;20033;-78
2023/08/28 06:42:22;;;;;;;8.43;7.72;;;15.10;99.90;;;;;;5010142;28;20038;-79
2023/08/28 06:44:48;;;;;;;6.80;6.20;;;15.30;99.90;;;;;;5011149;28;20049;-78
2023/08/28 06:47:15;;;;;;;7.10;6.50;;;15.40;99.90;;;;;;4979731;28;20510;-77
2023/08/28 06:49:42;;;;;;;8.23;6.82;;;15.60;99.90;;;;;;4995516;28;20042;-78
2023/08/28 06:52:08;;;;;;;6.03;5.47;;;15.60;99.90;;;;;;4990279;28;20029;-78
2023/08/28 06:54:35;;;;;;;7.30;6.15;;;15.70;99.90;;;;;;5009703;28;20040;-79
2023/08/28 06:57:01;;;;;;;10.63;9.20;;;15.90;99.90;;;;;;5009256;28;20037;-78
2023/08/28 06:59:28;;;;;;;7.60;6.57;;;16.20;99.90;;;;;;4978554;28;20044;-77
2023/08/28 07:01:54;;;;;;;6.25;5.40;;;16.40;99.90;;;;;;5009456;28;20492;-78
2023/08/28 07:04:21;;;;;;;7.18;6.00;;;16.60;99.90;;;;;;4993564;28;20049;-77
2023/08/28 07:06:47;;;;;;;6.22;5.63;;;16.80;99.90;;;;;;5013838;28;20053;-77
2023/08/28 07:09:14;;;;;;;5.53;4.75;;;16.90;99.90;;;;;;4994704;28;20034;-78
2023/08/28 07:11:41;;;;;;;3.05;2.85;;;17.20;99.90;;;;;;4994818;28;20049;-78
2023/08/28 07:14:08;;;;;;;3.22;2.92;;;17.40;99.90;;;;;;4993410;28;20026;-78
2023/08/28 07:16:34;;;;;;;3.08;2.78;;;17.70;99.90;;;;;;4979653;28;20486;-78
2023/08/28 07:19:01;;;;;;;4.70;3.70;;;18.00;99.90;;;;;;4995974;28;20061;-77
2023/08/28 07:21:27;;;;;;;3.90;3.30;;;18.30;99.90;;;;;;5026888;28;20522;-78
2023/08/28 07:23:54;;;;;;;3.95;2.78;;;18.50;99.90;;;;;;4976482;28;20029;-77
2023/08/28 07:26:20;;;;;;;3.55;3.25;;;18.70;99.90;;;;;;4994825;28;20426;-77
2023/08/28 07:28:48;;;;;;;5.32;4.47;;;18.80;99.90;;;;;;4979435;28;20452;-77
2023/08/28 07:31:15;;;;;;;4.35;3.95;;;18.90;99.90;;;;;;5009977;28;20489;-79
2023/08/28 07:33:42;;;;;;;4.13;3.50;;;18.90;99.90;;;;;;4993923;28;20524;-79
2023/08/28 07:36:08;;;;;;;3.50;3.15;;;18.90;99.90;;;;;;5010394;28;20389;-78
2023/08/28 07:38:35;;;;;;;5.25;3.80;;;19.10;99.90;;;;;;4978019;28;20607;-79
2023/08/28 07:41:01;;;;;;;5.55;4.82;;;19.20;99.90;;;;;;4992703;28;20048;-79
2023/08/28 07:43:28;;;;;;;3.70;2.90;;;19.50;99.90;;;;;;4992835;28;20053;-78
2023/08/28 07:45:55;;;;;;;4.43;2.83;;;19.60;99.90;;;;;;4980093;28;20041;-78
2023/08/28 07:48:21;;;;;;;5.03;4.38;;;19.80;99.90;;;;;;4992300;28;20080;-80
2023/08/28 07:50:47;;;;;;;5.38;4.32;;;19.90;99.90;;;;;;4991851;28;20030;-78
2023/08/28 07:53:14;;;;;;;4.72;3.95;;;19.90;99.90;;;;;;4975861;28;20044;-79
2023/08/28 07:55:41;;;;;;;3.78;3.38;;;19.90;99.90;;;;;;4996488;28;20025;-78
2023/08/28 07:58:09;;;;;;;3.63;3.28;;;19.90;99.90;;;;;;5010357;28;20477;-80
2023/08/28 08:00:37;;;;;;;3.42;3.10;;;19.70;99.90;;;;;;5008976;28;20696;-79
2023/08/28 08:03:04;;;;;;;4.57;3.20;;;19.70;99.90;;;;;;4992190;28;20053;-78
2023/08/28 08:05:31;;;;;;;4.65;4.10;;;19.60;99.90;;;;;;4999173;28;20042;-79
2023/08/28 08:07:58;;;;;;;3.95;3.38;;;19.60;99.90;;;;;;4996352;28;20029;-79
2023/08/28 08:10:25;;;;;;;3.15;2.75;;;19.70;99.90;;;;;;4998902;28;20120;-79
2023/08/28 08:12:51;;;;;;;2.60;2.30;;;19.70;99.90;;;;;;4980658;28;20038;-79
2023/08/28 08:15:18;;;;;;;4.60;2.45;;;19.80;99.90;;;;;;4998804;28;20049;-80
2023/08/28 08:17:44;;;;;;;2.05;1.50;;;19.90;99.90;;;;;;5014882;28;20034;-80
2023/08/28 08:20:11;;;;;;;1.98;1.15;;;20.00;99.90;;;;;;4979600;28;20046;-79
2023/08/28 08:22:38;;;;;;;2.47;2.08;;;20.10;99.90;;;;;;4996103;28;20053;-78
2023/08/28 08:25:05;;;;;;;1.95;1.23;;;20.30;99.90;;;;;;5031843;28;20057;-77
2023/08/28 08:27:32;;;;;;;2.35;1.60;;;20.40;99.90;;;;;;5014867;28;20030;-77
2023/08/28 08:29:59;;;;;;;3.10;2.38;;;20.60;99.90;;;;;;5000311;28;20659;-80
2023/08/28 08:32:25;;;;;;;2.75;1.48;;;20.70;99.90;;;;;;4994957;28;20438;-80
2023/08/28 08:34:52;;;;;;;2.47;1.15;;;20.60;99.90;;;;;;5013589;28;20038;-80
2023/08/28 08:37:18;;;;;;;1.73;0.88;;;20.40;99.90;;;;;;4997823;28;20496;-79
2023/08/28 08:39:44;;;;;;;2.63;1.17;;;20.30;99.90;;;;;;4998002;28;20021;-80
2023/08/28 08:42:12;;;;;;;2.40;0.90;;;20.20;99.90;;;;;;4994617;28;20046;-79
2023/08/28 08:44:39;;;;;;;2.45;1.52;;;20.20;99.90;;;;;;5014896;28;20041;-78
2023/08/28 08:47:06;;;;;;;3.20;1.00;;;20.40;99.90;;;;;;4981824;28;20034;-79
2023/08/28 08:49:33;;;;;;;1.77;0.80;;;20.60;99.90;;;;;;5010655;28;20049;-79
2023/08/28 08:52:03;;;;;;;2.83;0.70;;;20.80;99.90;;;;;;4995288;28;20068;-78
2023/08/28 08:54:39;;;;;;;0.90;0.50;;;20.90;99.90;;;;;;4996597;28;20477;-80
2023/08/28 08:57:15;;;;;;;1.23;0.50;;;21.00;99.90;;;;;;4997093;28;20679;-79
2023/08/28 08:59:42;;;;;;;0.82;0.35;;;21.00;99.90;;;;;;5029245;28;20041;-80
2023/08/28 09:02:09;;;;;;;2.17;0.40;;;20.80;99.90;;;;;;4995881;28;20501;-80
2023/08/28 09:04:35;;;;;;;1.58;0.40;;;20.70;99.90;;;;;;4995108;28;20072;-79
2023/08/28 09:07:06;;;;;;;0.50;0.30;;;20.60;99.90;;;;;;5014051;28;20037;-80
2023/08/28 09:09:33;;;;;;;1.92;0.52;;;20.60;99.90;;;;;;4979969;28;20021;-80
2023/08/28 09:11:59;;;;;;;1.48;0.50;;;20.60;99.90;;;;;;5010740;28;20045;-78
2023/08/28 09:14:28;;;;;;;1.17;0.40;;;20.60;99.90;;;;;;5013081;28;20042;-81
2023/08/28 09:16:54;;;;;;;0.80;0.30;;;20.60;99.90;;;;;;4981863;28;20038;-81
2023/08/28 09:19:21;;;;;;;1.17;0.50;;;20.70;99.90;;;;;;4996183;28;20621;-79
2023/08/28 09:21:49;;;;;;;1.02;0.30;;;20.90;99.90;;;;;;4995149;28;20050;-80
2023/08/28 09:24:21;;;;;;;1.02;0.40;;;21.00;99.90;;;;;;4980407;28;20037;-79
2023/08/28 09:26:53;;;;;;;1.42;0.40;;;21.10;99.90;;;;;;4996906;28;20040;-79
2023/08/28 09:29:22;;;;;;;1.05;0.43;;;21.30;99.90;;;;;;5011624;28;22648;-80
2023/08/28 09:31:48;;;;;;;1.35;0.38;;;21.50;99.90;;;;;;5012000;28;20445;-80
2023/08/28 09:34:17;;;;;;;0.60;0.20;;;21.80;99.90;;;;;;4993685;28;20038;-78
2023/08/28 09:36:43;;;;;;;1.83;0.20;;;22.00;99.90;;;;;;5010732;28;20049;-80
2023/08/28 09:39:12;;;;;;;2.58;0.40;;;22.30;99.90;;;;;;4995711;28;20034;-80
2023/08/28 09:41:48;;;;;;;0.70;0.30;;;22.50;99.90;;;;;;5026247;28;20850;-79
2023/08/28 09:44:21;;;;;;;0.63;0.20;;;22.80;99.90;;;;;;4995644;28;20041;-78
2023/08/28 09:46:49;;;;;;;0.95;0.30;;;22.90;99.90;;;;;;4995131;28;20048;-79
2023/08/28 09:49:15;;;;;;;0.50;0.20;;;22.80;99.90;;;;;;5010793;28;20552;-79
2023/08/28 09:51:47;;;;;;;0.47;0.20;;;22.60;99.90;;;;;;4993210;28;20037;-79
2023/08/28 09:54:15;;;;;;;0.35;0.20;;;22.40;99.90;;;;;;5027806;28;20491;-81
2023/08/28 09:56:43;;;;;;;1.00;0.20;;;22.20;99.90;;;;;;5012254;28;20033;-80
2023/08/28 09:59:11;;;;;;;0.75;0.20;;;22.00;99.90;;;;;;4980812;28;20483;-80
2023/08/28 10:01:38;;;;;;;0.38;0.10;;;21.70;99.90;;;;;;4994089;28;20037;-79
2023/08/28 10:04:06;;;;;;;0.55;0.10;;;21.50;99.90;;;;;;5008019;28;20037;-80
2023/08/28 10:06:45;;;;;;;0.52;0.20;;;21.40;99.90;;;;;;4979159;28;20049;-80
2023/08/28 10:09:18;;;;;;;0.35;0.10;;;21.50;99.90;;;;;;5026614;28;20042;-81
2023/08/28 10:11:45;;;;;;;1.17;0.20;;;21.60;99.90;;;;;;4994035;28;20037;-79
2023/08/28 10:14:14;;;;;;;0.55;0.20;;;21.80;99.90;;;;;;4994094;28;20030;-82
2023/08/28 10:17:09;;;;;;;0.40;0.20;;;22.00;99.90;;;;;;4980605;28;20030;-79
2023/08/28 10:19:57;;;;;;;0.50;0.20;;;22.30;99.90;;;;;;4994243;28;20046;-83
2023/08/28 10:22:24;;;;;;;1.70;0.20;;;22.60;99.90;;;;;;4977689;28;20073;-82
2023/08/28 10:24:53;;;;;;;1.17;0.30;;;22.80;99.90;;;;;;4979202;28;20356;-80
2023/08/28 10:27:20;;;;;;;0.90;0.20;;;23.00;99.90;;;;;;5028243;28;20049;-78
2023/08/28 10:29:47;;;;;;;0.75;0.20;;;23.30;99.90;;;;;;4996475;28;20041;-78
2023/08/28 10:32:14;;;;;;;0.47;0.20;;;23.60;99.90;;;;;;5010297;28;20038;-80
2023/08/28 10:34:42;;;;;;;0.70;0.20;;;24.00;99.90;;;;;;4994225;28;20369;-82
2023/08/28 10:37:09;;;;;;;0.57;0.20;;;24.40;99.90;;;;;;5009179;28;20056;-78
2023/08/28 10:39:39;;;;;;;1.05;0.25;;;24.70;99.90;;;;;;5012105;28;20041;-80
2023/08/28 10:42:08;;;;;;;1.02;0.20;;;24.70;99.90;;;;;;5008558;28;20038;-81
2023/08/28 10:44:37;;;;;;;1.42;0.20;;;25.00;99.90;;;;;;4994777;28;20045;-80
2023/08/28 10:47:03;;;;;;;0.98;0.32;;;25.40;99.90;;;;;;4992861;28;20485;-82
2023/08/28 10:49:32;;;;;;;0.90;0.40;;;25.80;99.90;;;;;;5011496;28;20615;-83
2023/08/28 10:52:04;;;;;;;0.73;0.40;;;26.20;99.90;;;;;;4976347;28;20566;-83
2023/08/28 10:54:38;;;;;;;1.23;0.20;;;26.60;99.90;;;;;;4994484;28;20049;-81
2023/08/28 10:57:20;;;;;;;0.55;0.28;;;26.90;99.90;;;;;;5028384;28;20544;-81
2023/08/28 10:59:46;;;;;;;1.60;0.30;;;27.20;99.90;;;;;;5027787;28;20052;-82
2023/08/28 11:02:12;;;;;;;0.65;0.20;;;27.60;99.90;;;;;;5006428;28;20055;-82
2023/08/28 11:04:40;;;;;;;1.50;0.30;;;27.80;99.80;;;;;;5009852;28;20060;-78
2023/08/28 11:07:30;;;;;;;1.25;0.30;;;27.60;99.40;;;;;;4996590;28;20045;-85
2023/08/28 11:10:27;;;;;;;1.05;0.30;;;27.50;98.50;;;;;;5027214;28;20034;-81
2023/08/28 11:13:07;;;;;;;0.77;0.22;;;27.20;98.20;;;;;;4990431;28;20045;-82
2023/08/28 11:15:38;;;;;;;1.25;0.40;;;27.00;98.00;;;;;;4995206;28;20041;-89
2023/08/28 11:18:19;;;;;;;0.70;0.30;;;26.70;97.90;;;;;;4994393;28;20026;-85
2023/08/28 11:20:53;;;;;;;0.50;0.20;;;26.60;98.50;;;;;;4992911;28;20053;-84
2023/08/28 11:23:33;;;;;;;0.88;0.20;;;26.90;98.30;;;;;;5025666;28;20046;-81
2023/08/28 11:26:03;;;;;;;1.55;0.25;;;27.50;97.60;;;;;;4993273;28;20033;-78
2023/08/28 11:28:44;;;;;;;1.00;0.30;;;27.90;96.40;;;;;;5011058;28;20029;-86
2023/08/28 11:31:12;;;;;;;1.15;0.30;;;28.60;96.10;;;;;;4992012;28;20241;-83
2023/08/28 11:33:43;;;;;;;0.70;0.20;;;28.60;95.20;;;;;;5009210;28;20034;-82
2023/08/28 11:36:15;;;;;;;1.55;0.22;;;28.30;95.10;;;;;;4993694;28;20037;-84
2023/08/28 11:38:43;;;;;;;0.98;0.22;;;27.90;94.80;;;;;;4995669;28;20504;-82
2023/08/28 11:41:10;;;;;;;0.65;0.25;;;27.60;95.40;;;;;;4994254;28;20033;-79
2023/08/28 11:43:41;;;;;;;0.98;0.30;;;27.70;95.40;;;;;;4992573;28;20034;-80
2023/08/28 11:46:09;;;;;;;0.68;0.50;;;28.10;95.30;;;;;;4993433;28;20026;-79
2023/08/28 11:48:42;;;;;;;1.45;0.52;;;28.50;94.40;;;;;;5011152;28;20034;-76
2023/08/28 11:51:09;;;;;;;0.68;0.30;;;28.90;94.30;;;;;;4994457;28;20030;-82
2023/08/28 11:53:37;;;;;;;0.88;0.30;;;29.10;92.80;;;;;;5008763;28;20477;-80
2023/08/28 11:56:05;;;;;;;0.93;0.30;;;29.30;92.20;;;;;;4995332;28;20025;-82
2023/08/28 11:58:33;;;;;;;1.00;0.20;;;29.30;91.50;;;;;;4992516;28;20034;-83
2023/08/28 12:01:01;;;;;;;0.22;0.13;;;29.20;90.80;;;;;;5008809;28;20049;-81
2023/08/28 12:03:31;;;;;;;1.58;0.20;;;29.00;90.70;;;;;;4991293;28;20042;-82
2023/08/28 12:06:02;;;;;;;1.38;0.38;;;29.00;90.40;;;;;;4994648;28;20952;-82
2023/08/28 12:08:29;;;;;;;0.40;0.20;;;29.10;90.20;;;;;;5027539;28;20064;-83
2023/08/28 12:10:58;;;;;;;1.00;0.20;;;29.20;89.70;;;;;;4994327;28;20461;-83
2023/08/28 12:13:24;;;;;;;0.40;0.20;;;29.00;88.40;;;;;;4993476;28;20030;-81
2023/08/28 12:15:50;;;;;;;0.50;0.20;;;29.00;87.90;;;;;;5025102;28;20037;-82
2023/08/28 12:18:17;;;;;;;1.02;0.30;;;29.00;87.40;;;;;;5026959;28;20029;-83
2023/08/28 12:20:43;;;;;;;0.93;0.30;;;29.00;87.10;;;;;;4994546;28;21134;-82
2023/08/28 12:23:12;;;;;;;0.63;0.20;;;29.00;87.20;;;;;;4991100;28;20053;-81
2023/08/28 12:25:40;;;;;;;0.70;0.20;;;28.90;87.60;;;;;;5005561;28;20036;-81
2023/08/28 12:28:08;;;;;;;0.60;0.25;;;28.80;87.70;;;;;;4993215;28;20041;-81
2023/08/28 12:30:41;;;;;;;0.90;0.28;;;28.70;87.00;;;;;;4975747;28;20397;-83
2023/08/28 12:33:08;;;;;;;0.80;0.30;;;28.50;86.70;;;;;;4993119;28;20034;-83
2023/08/28 12:35:36;;;;;;;1.13;0.30;;;28.40;86.20;;;;;;4995378;28;20036;-81
2023/08/28 12:38:03;;;;;;;0.68;0.30;;;28.20;85.50;;;;;;4997056;28;20362;-83
2023/08/28 12:40:36;;;;;;;1.38;0.30;;;28.40;85.70;;;;;;4977348;28;20042;-83
2023/08/28 12:43:10;;;;;;;0.82;0.30;;;29.10;85.10;;;;;;4990678;28;20034;-83
2023/08/28 12:45:37;;;;;;;1.50;0.30;;;29.40;84.80;;;;;;4994060;28;20033;-86
2023/08/28 12:48:04;;;;;;;2.25;0.30;;;29.90;84.10;;;;;;4993700;28;20046;-83
2023/08/28 12:50:30;;;;;;;1.38;0.32;;;30.80;83.00;;;;;;5011730;28;20041;-83
2023/08/28 12:52:56;;;;;;;2.20;0.35;;;31.60;81.40;;;;;;4993927;28;20037;-86